Time;durP1;ratioP1;P1;durP2;ratioP2;P2;SDS_P1;SDS_P2;PMS_P1;PMS_P2;Temp;Humidity;BMP_temperature;BMP_pressure;BME280_temperature;BME280_humidity;BME280_pressure;Samples;Min_cycle;Max_cycle;Signal;HPM_P1;HPM_P2
2021/11/09 00:01:56;;;;;;;0.00;0.00;;;;;;;;;;4972095;28;20372;-71
2021/11/09 00:04:28;;;;;;;0.30;0.13;;;;;;;;;;4970755;28;20651;-72
2021/11/09 00:07:01;;;;;;;1.27;1.27;;;;;;;;;;4971295;28;20682;-71
2021/11/09 00:09:34;;;;;;;0.00;0.00;;;;;;;;;;4971080;28;20221;-71
2021/11/09 00:12:01;;;;;;;0.00;0.00;;;;;;;;;;4970768;28;20214;-72
2021/11/09 00:14:29;;;;;;;0.43;0.43;;;;;;;;;;4971227;28;20206;-72
2021/11/09 00:16:57;;;;;;;0.00;0.00;;;;;;;;;;4971301;28;20675;-71
2021/11/09 00:19:25;;;;;;;0.10;0.10;;;;;;;;;;4971326;28;20219;-71
2021/11/09 00:21:53;;;;;;;0.07;0.07;;;;;;;;;;4972588;28;20220;-71
2021/11/09 00:24:20;;;;;;;0.10;0.10;;;;;;;;;;4972195;28;20206;-72
2021/11/09 00:26:48;;;;;;;0.00;0.00;;;;;;;;;;4973501;28;20217;-71
2021/11/09 00:29:16;;;;;;;0.07;0.07;;;;;;;;;;4971672;28;20202;-70
2021/11/09 00:31:44;;;;;;;0.00;0.00;;;;;;;;;;4972149;28;20210;-71
2021/11/09 00:34:13;;;;;;;0.00;0.00;;;;;;;;;;4969918;28;20719;-71
2021/11/09 00:36:40;;;;;;;0.00;0.00;;;;;;;;;;4970261;28;20204;-71
2021/11/09 00:39:12;;;;;;;0.00;0.00;;;;;;;;;;4972343;28;20214;-71
2021/11/09 00:41:39;;;;;;;0.00;0.00;;;;;;;;;;4972521;28;20574;-71
2021/11/09 00:44:07;;;;;;;0.00;0.00;;;;;;;;;;4971134;28;20209;-71
2021/11/09 00:46:34;;;;;;;0.00;0.00;;;;;;;;;;4971481;28;20226;-73
2021/11/09 00:49:01;;;;;;;0.00;0.00;;;;;;;;;;4968187;28;20220;-72
2021/11/09 00:51:30;;;;;;;0.30;0.30;;;;;;;;;;4969815;28;20193;-71
2021/11/09 00:53:57;;;;;;;0.00;0.00;;;;;;;;;;4971362;28;20798;-71
2021/11/09 00:56:25;;;;;;;0.73;0.73;;;;;;;;;;4970112;28;20579;-71
2021/11/09 00:58:52;;;;;;;1.00;0.90;;;;;;;;;;4972769;28;20213;-71
2021/11/09 01:01:20;;;;;;;4.83;3.63;;;;;;;;;;4971160;28;20570;-71
2021/11/09 01:03:47;;;;;;;0.00;0.00;;;;;;;;;;4969844;28;20244;-72
2021/11/09 01:06:15;;;;;;;0.83;0.40;;;;;;;;;;4971310;28;20568;-71
2021/11/09 01:08:43;;;;;;;0.37;0.37;;;;;;;;;;4968620;28;20210;-71
2021/11/09 01:11:11;;;;;;;0.00;0.00;;;;;;;;;;4968705;28;20577;-72
2021/11/09 01:13:38;;;;;;;0.00;0.00;;;;;;;;;;4969609;28;20205;-71
2021/11/09 01:16:06;;;;;;;0.00;0.00;;;;;;;;;;4970360;28;20670;-71
2021/11/09 01:18:35;;;;;;;0.20;0.20;;;;;;;;;;4968087;28;21483;-71
2021/11/09 01:21:03;;;;;;;0.47;0.47;;;;;;;;;;4969578;28;20197;-73
2021/11/09 01:23:30;;;;;;;0.00;0.00;;;;;;;;;;4971238;28;20244;-72
2021/11/09 01:25:59;;;;;;;0.13;0.13;;;;;;;;;;4970251;28;20705;-72
2021/11/09 01:28:27;;;;;;;0.00;0.00;;;;;;;;;;4973701;28;20206;-71
2021/11/09 01:30:54;;;;;;;0.00;0.00;;;;;;;;;;4968394;28;20212;-71
2021/11/09 01:33:22;;;;;;;0.30;0.30;;;;;;;;;;4969063;28;20334;-71
2021/11/09 01:35:49;;;;;;;0.23;0.23;;;;;;;;;;4966478;28;20201;-71
2021/11/09 01:38:16;;;;;;;0.00;0.00;;;;;;;;;;4968294;28;20189;-71
2021/11/09 01:40:44;;;;;;;1.13;1.13;;;;;;;;;;4969780;28;20682;-72
2021/11/09 01:43:14;;;;;;;0.00;0.00;;;;;;;;;;4968435;28;20226;-71
2021/11/09 01:45:41;;;;;;;0.50;0.50;;;;;;;;;;4969202;28;20542;-71
2021/11/09 01:48:09;;;;;;;0.63;0.63;;;;;;;;;;4968565;28;20495;-72
2021/11/09 01:50:38;;;;;;;0.50;0.37;;;;;;;;;;4970296;28;20228;-71
2021/11/09 01:53:06;;;;;;;0.10;0.10;;;;;;;;;;4970108;28;20190;-71
2021/11/09 01:55:34;;;;;;;1.60;1.10;;;;;;;;;;4968005;28;20214;-72
2021/11/09 01:58:02;;;;;;;0.20;0.20;;;;;;;;;;4967262;28;20222;-72
2021/11/09 02:00:35;;;;;;;0.00;0.00;;;;;;;;;;4974732;28;20641;-71
2021/11/09 02:03:03;;;;;;;0.27;0.27;;;;;;;;;;4973129;28;20681;-72
2021/11/09 02:05:31;;;;;;;0.13;0.10;;;;;;;;;;4973495;28;22175;-72
2021/11/09 02:07:59;;;;;;;0.30;0.30;;;;;;;;;;4977376;28;20856;-72
2021/11/09 02:10:28;;;;;;;0.00;0.00;;;;;;;;;;4972110;28;20219;-72
2021/11/09 02:12:56;;;;;;;0.30;0.30;;;;;;;;;;4974061;28;20209;-72
2021/11/09 02:15:24;;;;;;;0.10;0.10;;;;;;;;;;4973572;28;20709;-71
2021/11/09 02:17:52;;;;;;;0.00;0.00;;;;;;;;;;4973323;28;20756;-72
2021/11/09 02:20:21;;;;;;;0.00;0.00;;;;;;;;;;4972603;28;20210;-72
2021/11/09 02:22:50;;;;;;;0.20;0.20;;;;;;;;;;4971125;28;20285;-72
2021/11/09 02:25:20;;;;;;;0.00;0.00;;;;;;;;;;4973849;28;20202;-72
2021/11/09 02:27:47;;;;;;;0.00;0.00;;;;;;;;;;4972445;28;20209;-72
2021/11/09 02:30:18;;;;;;;0.47;0.47;;;;;;;;;;4972083;28;20233;-72
2021/11/09 02:32:45;;;;;;;0.20;0.20;;;;;;;;;;4972940;28;20236;-72
2021/11/09 02:35:14;;;;;;;1.03;0.97;;;;;;;;;;4974322;28;20198;-72
2021/11/09 02:37:42;;;;;;;0.00;0.00;;;;;;;;;;4974148;28;20296;-72
2021/11/09 02:40:11;;;;;;;0.00;0.00;;;;;;;;;;4973668;28;20356;-71
2021/11/09 02:42:40;;;;;;;0.00;0.00;;;;;;;;;;4970392;28;20710;-72
2021/11/09 02:45:12;;;;;;;0.47;0.47;;;;;;;;;;4969850;28;21086;-70
2021/11/09 02:47:48;;;;;;;0.10;0.10;;;;;;;;;;4973394;28;20204;-71
2021/11/09 02:50:18;;;;;;;0.00;0.00;;;;;;;;;;4971893;28;20245;-72
2021/11/09 02:52:52;;;;;;;1.53;0.53;;;;;;;;;;4970986;28;20206;-71
2021/11/09 02:55:26;;;;;;;0.00;0.00;;;;;;;;;;4973064;28;20209;-71
2021/11/09 02:57:58;;;;;;;0.00;0.00;;;;;;;;;;4973495;28;20661;-71
2021/11/09 03:00:28;;;;;;;0.10;0.10;;;;;;;;;;4976468;28;20205;-71
2021/11/09 03:03:00;;;;;;;0.00;0.00;;;;;;;;;;4972170;28;20324;-71
2021/11/09 03:05:30;;;;;;;0.00;0.00;;;;;;;;;;4971356;28;20197;-71
2021/11/09 03:08:02;;;;;;;0.00;0.00;;;;;;;;;;4973037;28;20209;-71
2021/11/09 03:10:33;;;;;;;0.00;0.00;;;;;;;;;;4978693;28;20229;-72
2021/11/09 03:13:01;;;;;;;0.00;0.00;;;;;;;;;;4981154;28;20244;-72
2021/11/09 03:15:30;;;;;;;0.00;0.00;;;;;;;;;;4978863;28;20220;-71
2021/11/09 03:18:01;;;;;;;0.73;0.73;;;;;;;;;;4977514;28;20202;-72
2021/11/09 03:20:34;;;;;;;0.00;0.00;;;;;;;;;;4977631;28;20210;-71
2021/11/09 03:45:07;;;;;;;0.00;0.00;;;;;;;;;;4976687;28;20705;-71
2021/11/09 03:47:38;;;;;;;1.37;1.27;;;;;;;;;;4974670;28;20213;-72
2021/11/09 03:50:05;;;;;;;0.10;0.10;;;;;;;;;;4977933;28;20324;-72
2021/11/09 03:52:40;;;;;;;0.00;0.00;;;;;;;;;;4979496;28;20208;-72
2021/11/09 03:55:08;;;;;;;1.67;1.10;;;;;;;;;;4978554;28;20219;-71
2021/11/09 03:57:42;;;;;;;0.40;0.20;;;;;;;;;;4977912;28;20213;-72
2021/11/09 04:00:16;;;;;;;1.53;1.50;;;;;;;;;;4980283;28;20224;-72
2021/11/09 04:02:50;;;;;;;0.93;0.63;;;;;;;;;;4976201;28;20210;-72
2021/11/09 04:05:19;;;;;;;0.67;0.40;;;;;;;;;;4976259;28;20267;-71
2021/11/09 04:07:54;;;;;;;0.37;0.37;;;;;;;;;;4979333;28;20826;-71
2021/11/09 04:10:31;;;;;;;0.20;0.20;;;;;;;;;;4979155;28;20339;-71
2021/11/09 04:13:17;;;;;;;0.00;0.00;;;;;;;;;;4975258;28;20217;-71
2021/11/09 04:18:36;;;;;;;0.90;0.90;;;;;;;;;;4975029;28;20205;-72
2021/11/09 04:21:15;;;;;;;0.10;0.10;;;;;;;;;;4973564;28;20209;-71
2021/11/09 04:26:56;;;;;;;0.40;0.40;;;;;;;;;;4975039;28;20208;-72
2021/11/09 04:32:25;;;;;;;0.37;0.37;;;;;;;;;;4959605;28;20535;-70
2021/11/09 04:52:25;;;;;;;0.23;0.23;;;;;;;;;;4966508;28;20705;-71
2021/11/09 05:08:16;;;;;;;2.50;0.80;;;;;;;;;;4966566;28;20581;-71
2021/11/09 05:08:48;;;;;;;0.90;0.90;;;;;;;;;;4968705;28;20241;-72
2021/11/09 05:11:16;;;;;;;1.27;1.17;;;;;;;;;;4967165;28;20239;-72
2021/11/09 05:13:43;;;;;;;0.00;0.00;;;;;;;;;;4968459;28;20947;-71
2021/11/09 05:16:11;;;;;;;0.00;0.00;;;;;;;;;;4970203;28;21138;-72
2021/11/09 05:18:39;;;;;;;0.20;0.20;;;;;;;;;;4966382;28;20202;-72
2021/11/09 05:21:07;;;;;;;0.50;0.47;;;;;;;;;;4965616;28;20216;-72
2021/11/09 05:23:34;;;;;;;1.30;1.20;;;;;;;;;;4966702;28;20239;-71
2021/11/09 05:26:02;;;;;;;1.13;1.13;;;;;;;;;;4968315;28;20206;-71
2021/11/09 05:28:29;;;;;;;0.00;0.00;;;;;;;;;;4968731;28;20220;-72
2021/11/09 05:30:57;;;;;;;0.30;0.27;;;;;;;;;;4966895;28;20760;-70
2021/11/09 05:33:24;;;;;;;0.00;0.00;;;;;;;;;;4968758;28;22487;-72
2021/11/09 05:35:56;;;;;;;0.50;0.50;;;;;;;;;;4969487;28;20804;-72
2021/11/09 05:38:29;;;;;;;0.00;0.00;;;;;;;;;;4971097;28;20201;-72
2021/11/09 05:40:58;;;;;;;0.00;0.00;;;;;;;;;;4970306;28;20280;-72
2021/11/09 05:43:28;;;;;;;0.13;0.10;;;;;;;;;;4971080;28;20790;-71
2021/11/09 05:45:55;;;;;;;0.00;0.00;;;;;;;;;;4970709;28;20667;-72
2021/11/09 05:48:22;;;;;;;1.00;1.00;;;;;;;;;;4972955;28;20214;-71
2021/11/09 05:50:50;;;;;;;0.00;0.00;;;;;;;;;;4972190;28;22128;-71
2021/11/09 05:53:19;;;;;;;0.93;0.83;;;;;;;;;;4970658;28;20206;-72
2021/11/09 05:55:46;;;;;;;0.60;0.60;;;;;;;;;;4970612;28;20241;-71
2021/11/09 05:58:13;;;;;;;0.13;0.13;;;;;;;;;;4968989;28;20763;-72
2021/11/09 06:00:41;;;;;;;0.40;0.40;;;;;;;;;;4976246;28;20739;-72
2021/11/09 06:03:08;;;;;;;0.30;0.30;;;;;;;;;;4970864;28;20573;-72
2021/11/09 06:05:36;;;;;;;0.00;0.00;;;;;;;;;;4970963;28;20210;-71
2021/11/09 06:08:03;;;;;;;0.63;0.63;;;;;;;;;;4970856;28;20208;-71
2021/11/09 06:10:32;;;;;;;1.03;0.20;;;;;;;;;;4971142;28;20198;-71
2021/11/09 06:12:59;;;;;;;0.20;0.20;;;;;;;;;;4969749;28;20244;-71
2021/11/09 06:15:27;;;;;;;0.37;0.23;;;;;;;;;;4970242;28;20237;-71
2021/11/09 06:17:54;;;;;;;0.00;0.00;;;;;;;;;;4968715;28;20213;-72
2021/11/09 06:20:22;;;;;;;0.87;0.87;;;;;;;;;;4968464;28;20202;-72
2021/11/09 06:22:49;;;;;;;0.87;0.87;;;;;;;;;;4970040;28;20212;-72
2021/11/09 06:25:17;;;;;;;0.00;0.00;;;;;;;;;;4971862;28;20218;-71
2021/11/09 06:27:45;;;;;;;2.77;1.50;;;;;;;;;;4970630;28;21316;-71
2021/11/09 06:30:13;;;;;;;0.00;0.00;;;;;;;;;;4970786;28;20220;-72
2021/11/09 06:32:40;;;;;;;4.53;2.47;;;;;;;;;;4969433;28;20201;-71
2021/11/09 06:35:08;;;;;;;0.13;0.13;;;;;;;;;;4970676;28;22291;-71
2021/11/09 06:37:36;;;;;;;0.30;0.30;;;;;;;;;;4971126;28;20218;-71
2021/11/09 06:40:04;;;;;;;0.40;0.20;;;;;;;;;;4972706;28;20221;-71
2021/11/09 06:42:32;;;;;;;0.87;0.70;;;;;;;;;;4971177;28;20602;-71
2021/11/09 06:45:01;;;;;;;0.87;0.67;;;;;;;;;;4970809;28;20234;-71
2021/11/09 06:47:28;;;;;;;1.43;1.00;;;;;;;;;;4972177;28;20212;-71
2021/11/09 06:49:56;;;;;;;1.13;0.93;;;;;;;;;;4971154;28;20202;-72
2021/11/09 06:52:24;;;;;;;1.30;1.13;;;;;;;;;;4968750;28;20213;-73
2021/11/09 06:54:52;;;;;;;0.60;0.37;;;;;;;;;;4974452;28;20303;-73
2021/11/09 06:57:19;;;;;;;6.23;2.10;;;;;;;;;;4976958;28;20831;-72
2021/11/09 06:59:48;;;;;;;0.87;0.87;;;;;;;;;;4981047;28;20678;-71
2021/11/09 07:02:17;;;;;;;0.53;0.53;;;;;;;;;;4980122;28;20197;-72
2021/11/09 07:04:45;;;;;;;1.83;1.73;;;;;;;;;;4978905;28;20240;-71
2021/11/09 07:07:12;;;;;;;1.60;0.93;;;;;;;;;;4976804;28;20213;-71
2021/11/09 07:09:39;;;;;;;1.27;1.17;;;;;;;;;;4977761;28;20209;-71
2021/11/09 07:12:07;;;;;;;0.83;0.83;;;;;;;;;;4976397;28;20206;-70
2021/11/09 07:14:35;;;;;;;0.73;0.73;;;;;;;;;;4977821;28;20210;-70
2021/11/09 07:17:04;;;;;;;1.57;1.37;;;;;;;;;;4979833;28;20309;-71
2021/11/09 07:19:35;;;;;;;1.30;0.83;;;;;;;;;;4977791;28;20825;-73
2021/11/09 07:22:03;;;;;;;0.43;0.43;;;;;;;;;;4969835;28;20514;-71
2021/11/09 07:24:31;;;;;;;1.33;1.33;;;;;;;;;;4970598;28;20229;-73
2021/11/09 07:26:59;;;;;;;1.00;0.97;;;;;;;;;;4977808;28;20209;-71
2021/11/09 07:29:26;;;;;;;0.00;0.00;;;;;;;;;;4976737;28;20237;-73
2021/11/09 07:31:55;;;;;;;0.30;0.30;;;;;;;;;;4977616;28;20217;-72
2021/11/09 07:34:23;;;;;;;0.43;0.40;;;;;;;;;;4976152;28;20240;-73
2021/11/09 07:36:52;;;;;;;1.20;0.70;;;;;;;;;;4976900;28;20233;-73
2021/11/09 07:39:20;;;;;;;0.40;0.40;;;;;;;;;;4975369;28;20206;-70
2021/11/09 07:41:51;;;;;;;0.00;0.00;;;;;;;;;;4976804;28;20284;-71
2021/11/09 07:44:18;;;;;;;0.03;0.03;;;;;;;;;;4979025;28;20217;-71
2021/11/09 07:46:46;;;;;;;1.60;1.40;;;;;;;;;;4981600;28;20218;-71
2021/11/09 07:49:13;;;;;;;4.27;1.73;;;;;;;;;;4985472;28;20882;-71
2021/11/09 07:51:41;;;;;;;1.40;0.77;;;;;;;;;;4987155;28;20205;-72
2021/11/09 07:54:10;;;;;;;0.83;0.83;;;;;;;;;;4976304;28;20306;-71
2021/11/09 07:56:40;;;;;;;1.97;1.67;;;;;;;;;;4975652;28;20205;-71
2021/11/09 07:59:28;;;;;;;2.23;1.57;;;;;;;;;;4976858;28;20213;-71
2021/11/09 08:02:02;;;;;;;0.27;0.27;;;;;;;;;;4976019;28;20208;-71
2021/11/09 08:04:35;;;;;;;1.40;0.40;;;;;;;;;;4975310;28;20293;-73
2021/11/09 08:07:05;;;;;;;0.60;0.43;;;;;;;;;;4976083;28;20569;-73
2021/11/09 08:09:35;;;;;;;1.30;1.27;;;;;;;;;;4974280;28;21694;-73
2021/11/09 08:12:04;;;;;;;0.73;0.73;;;;;;;;;;4974143;28;20209;-73
2021/11/09 08:14:31;;;;;;;0.10;0.10;;;;;;;;;;4977156;28;20225;-73
2021/11/09 08:17:00;;;;;;;2.70;1.20;;;;;;;;;;4976952;28;20223;-73
2021/11/09 08:19:27;;;;;;;0.13;0.13;;;;;;;;;;4974232;28;20557;-74
2021/11/09 08:21:55;;;;;;;0.37;0.37;;;;;;;;;;4976515;28;20561;-73
2021/11/09 08:24:24;;;;;;;0.27;0.27;;;;;;;;;;4975196;28;20601;-72
2021/11/09 08:26:54;;;;;;;1.10;1.00;;;;;;;;;;4974456;28;20822;-76
2021/11/09 08:29:25;;;;;;;0.30;0.30;;;;;;;;;;4975301;28;20705;-72
2021/11/09 08:31:53;;;;;;;1.13;1.03;;;;;;;;;;4973192;28;20228;-74
2021/11/09 08:34:21;;;;;;;1.23;1.13;;;;;;;;;;4983220;28;20253;-74
2021/11/09 08:36:48;;;;;;;0.90;0.90;;;;;;;;;;4979716;28;20212;-74
2021/11/09 08:39:21;;;;;;;0.60;0.60;;;;;;;;;;4977974;28;20768;-71
2021/11/09 08:41:52;;;;;;;1.17;0.43;;;;;;;;;;4977382;28;20260;-72
2021/11/09 08:44:22;;;;;;;0.20;0.20;;;;;;;;;;4978799;28;20336;-72
2021/11/09 08:46:53;;;;;;;0.77;0.50;;;;;;;;;;4979259;28;20679;-71
2021/11/09 08:49:20;;;;;;;0.30;0.30;;;;;;;;;;4979755;28;20205;-72
2021/11/09 08:51:49;;;;;;;0.07;0.07;;;;;;;;;;4977468;28;20920;-72
2021/11/09 08:54:20;;;;;;;0.27;0.27;;;;;;;;;;4974742;28;20304;-71
2021/11/09 08:57:05;;;;;;;0.40;0.30;;;;;;;;;;4977130;28;20213;-72
2021/11/09 09:05:06;;;;;;;0.23;0.23;;;;;;;;;;4977843;28;20244;-72
2021/11/09 09:07:34;;;;;;;1.03;0.70;;;;;;;;;;4978454;28;20220;-69
2021/11/09 09:10:03;;;;;;;1.80;1.27;;;;;;;;;;4980340;28;20228;-71
2021/11/09 09:12:32;;;;;;;1.00;0.90;;;;;;;;;;4977439;28;21051;-71
2021/11/09 09:15:04;;;;;;;0.00;0.00;;;;;;;;;;4974035;28;20697;-72
2021/11/09 09:17:33;;;;;;;0.10;0.10;;;;;;;;;;4975081;28;20224;-69
2021/11/09 09:20:06;;;;;;;0.00;0.00;;;;;;;;;;4968807;28;20205;-68
2021/11/09 09:22:37;;;;;;;0.00;0.00;;;;;;;;;;4966070;28;20579;-71
2021/11/09 09:25:18;;;;;;;0.80;0.80;;;;;;;;;;4974429;28;20241;-70
2021/11/09 09:30:46;;;;;;;0.30;0.27;;;;;;;;;;4974586;28;20259;-71
2021/11/09 09:33:38;;;;;;;2.07;1.90;;;;;;;;;;4976287;28;20289;-71
2021/11/09 09:52:55;;;;;;;2.63;1.87;;;;;;;;;;4969746;28;20300;-69
2021/11/09 09:55:34;;;;;;;1.27;0.63;;;;;;;;;;4968790;28;20213;-71
2021/11/09 09:58:02;;;;;;;0.20;0.20;;;;;;;;;;4973978;28;20251;-71
2021/11/09 10:00:29;;;;;;;0.03;0.03;;;;;;;;;;4971194;28;20210;-70
2021/11/09 10:02:59;;;;;;;0.40;0.40;;;;;;;;;;4969246;28;20212;-71
2021/11/09 10:05:27;;;;;;;0.20;0.20;;;;;;;;;;4973401;28;20240;-69
2021/11/09 10:07:56;;;;;;;0.00;0.00;;;;;;;;;;4972236;28;20202;-70
2021/11/09 10:10:24;;;;;;;0.40;0.40;;;;;;;;;;4971708;28;20202;-70
2021/11/09 10:13:02;;;;;;;0.20;0.20;;;;;;;;;;4973083;28;20201;-70
2021/11/09 10:15:32;;;;;;;0.10;0.10;;;;;;;;;;4972547;28;20232;-70
2021/11/09 10:18:02;;;;;;;0.83;0.43;;;;;;;;;;4973763;28;20216;-71
2021/11/09 10:20:34;;;;;;;2.00;1.57;;;;;;;;;;4976647;28;20201;-71
2021/11/09 10:23:02;;;;;;;2.17;0.83;;;;;;;;;;4974453;28;21819;-69
2021/11/09 10:25:30;;;;;;;3.60;0.97;;;;;;;;;;4973628;28;20239;-72
2021/11/09 10:28:00;;;;;;;0.10;0.10;;;;;;;;;;4974838;28;20201;-71
2021/11/09 10:30:29;;;;;;;2.83;1.50;;;;;;;;;;4974365;28;20782;-71
2021/11/09 10:32:58;;;;;;;1.60;1.60;;;;;;;;;;4975367;28;20244;-71
2021/11/09 10:35:30;;;;;;;1.03;1.03;;;;;;;;;;4980961;28;20205;-72
2021/11/09 10:37:58;;;;;;;4.27;1.03;;;;;;;;;;4974237;28;20747;-71
2021/11/09 10:40:27;;;;;;;1.30;1.03;;;;;;;;;;4975463;28;20555;-70
2021/11/09 10:42:58;;;;;;;0.53;0.53;;;;;;;;;;4977732;28;20575;-69
2021/11/09 10:45:27;;;;;;;1.00;0.87;;;;;;;;;;4975254;28;20229;-72
2021/11/09 10:47:55;;;;;;;1.73;1.20;;;;;;;;;;4981008;28;20218;-71
2021/11/09 10:50:24;;;;;;;3.37;1.90;;;;;;;;;;4982275;28;20205;-70
2021/11/09 10:53:03;;;;;;;0.03;0.03;;;;;;;;;;4977255;28;20298;-71
2021/11/09 10:55:36;;;;;;;0.70;0.53;;;;;;;;;;4981133;28;20699;-69
2021/11/09 11:04:03;;;;;;;0.97;0.77;;;;;;;;;;4980905;28;20725;-71
2021/11/09 11:06:31;;;;;;;2.43;2.00;;;;;;;;;;4980539;28;20267;-72
2021/11/09 11:09:00;;;;;;;2.80;1.27;;;;;;;;;;4985130;28;20671;-70
2021/11/09 11:11:28;;;;;;;0.33;0.33;;;;;;;;;;4981284;28;20213;-70
2021/11/09 11:13:56;;;;;;;1.60;0.97;;;;;;;;;;4981515;28;20212;-69
2021/11/09 11:16:26;;;;;;;4.47;1.50;;;;;;;;;;4978938;28;20220;-70
2021/11/09 11:18:55;;;;;;;0.77;0.70;;;;;;;;;;4981125;28;20264;-72
2021/11/09 11:21:26;;;;;;;1.07;1.07;;;;;;;;;;4980169;28;20220;-71
2021/11/09 11:23:54;;;;;;;0.83;0.83;;;;;;;;;;4980207;28;20198;-70
2021/11/09 11:26:24;;;;;;;3.53;1.70;;;;;;;;;;4979267;28;20229;-69
2021/11/09 11:28:52;;;;;;;1.67;1.60;;;;;;;;;;4980506;28;20209;-71
2021/11/09 11:31:21;;;;;;;0.47;0.37;;;;;;;;;;4981349;28;20224;-70
2021/11/09 11:33:49;;;;;;;0.87;0.87;;;;;;;;;;4977529;28;20233;-70
2021/11/09 11:36:17;;;;;;;3.43;1.60;;;;;;;;;;4987970;28;20689;-71
2021/11/09 11:38:46;;;;;;;1.07;0.63;;;;;;;;;;4990268;28;20216;-71
2021/11/09 11:41:13;;;;;;;1.60;1.13;;;;;;;;;;4989345;28;20288;-71
2021/11/09 11:44:01;;;;;;;0.00;0.00;;;;;;;;;;4989719;28;20206;-71
2021/11/09 11:46:46;;;;;;;0.00;0.00;;;;;;;;;;4983975;28;20245;-71
2021/11/09 11:49:15;;;;;;;1.00;0.93;;;;;;;;;;4986872;28;20212;-71
2021/11/09 11:52:02;;;;;;;2.10;0.63;;;;;;;;;;4980828;28;20209;-73
2021/11/09 11:54:39;;;;;;;1.20;1.10;;;;;;;;;;4979500;28;20670;-71
2021/11/09 11:57:06;;;;;;;0.43;0.30;;;;;;;;;;4977520;28;20213;-70
2021/11/09 11:59:42;;;;;;;1.77;1.67;;;;;;;;;;4978029;28;20217;-70
2021/11/09 12:02:11;;;;;;;0.53;0.27;;;;;;;;;;4979754;28;20213;-71
2021/11/09 12:04:54;;;;;;;0.63;0.47;;;;;;;;;;4980076;28;20194;-70
2021/11/09 12:07:23;;;;;;;0.67;0.63;;;;;;;;;;4977622;28;20236;-70
2021/11/09 12:09:52;;;;;;;0.83;0.67;;;;;;;;;;4977134;28;20202;-71
2021/11/09 12:12:30;;;;;;;0.43;0.43;;;;;;;;;;4977741;28;20701;-70
2021/11/09 12:15:00;;;;;;;0.00;0.00;;;;;;;;;;4979822;28;20259;-70
2021/11/09 12:17:35;;;;;;;0.20;0.20;;;;;;;;;;4980226;28;20297;-70
2021/11/09 12:20:05;;;;;;;0.47;0.33;;;;;;;;;;4979677;28;20249;-70
2021/11/09 12:22:43;;;;;;;3.83;1.17;;;;;;;;;;4976753;28;20209;-70
2021/11/09 12:25:13;;;;;;;0.50;0.50;;;;;;;;;;4979238;28;20228;-70
2021/11/09 12:28:00;;;;;;;0.50;0.40;;;;;;;;;;4981218;28;20288;-70
2021/11/09 12:30:58;;;;;;;0.00;0.00;;;;;;;;;;4976606;28;20205;-71
2021/11/09 12:33:27;;;;;;;0.33;0.33;;;;;;;;;;4976349;28;20276;-70
2021/11/09 12:36:11;;;;;;;0.30;0.17;;;;;;;;;;4975945;28;20212;-72
2021/11/09 12:38:40;;;;;;;0.40;0.40;;;;;;;;;;4975616;28;20252;-70
2021/11/09 12:41:12;;;;;;;0.17;0.17;;;;;;;;;;4976702;28;20212;-71
2021/11/09 12:43:44;;;;;;;0.30;0.30;;;;;;;;;;4980853;28;20205;-71
2021/11/09 12:46:14;;;;;;;0.00;0.00;;;;;;;;;;4979721;28;20245;-71
2021/11/09 12:48:49;;;;;;;0.70;0.70;;;;;;;;;;4979080;28;20761;-69
2021/11/09 12:51:17;;;;;;;0.20;0.20;;;;;;;;;;4974995;28;20646;-70
2021/11/09 12:53:45;;;;;;;1.67;1.37;;;;;;;;;;4979066;28;20221;-72
2021/11/09 12:56:14;;;;;;;1.90;0.73;;;;;;;;;;4976757;28;20205;-70
2021/11/09 12:58:55;;;;;;;0.00;0.00;;;;;;;;;;4976018;28;20217;-70
2021/11/09 13:01:28;;;;;;;0.97;0.87;;;;;;;;;;4976276;28;20214;-69
2021/11/09 13:04:14;;;;;;;0.00;0.00;;;;;;;;;;4975588;28;20600;-70
2021/11/09 13:06:45;;;;;;;1.50;1.33;;;;;;;;;;4975469;28;20819;-70
2021/11/09 13:09:21;;;;;;;0.00;0.00;;;;;;;;;;4975519;28;21178;-70
2021/11/09 13:11:51;;;;;;;0.00;0.00;;;;;;;;;;4976355;28;20236;-70
2021/11/09 13:14:19;;;;;;;4.53;0.80;;;;;;;;;;4975401;28;20256;-73
2021/11/09 13:16:49;;;;;;;0.00;0.00;;;;;;;;;;4977318;28;20197;-71
2021/11/09 13:19:23;;;;;;;1.20;0.83;;;;;;;;;;4976420;28;20224;-69
2021/11/09 13:22:06;;;;;;;0.00;0.00;;;;;;;;;;4977091;28;20247;-69
2021/11/09 13:24:34;;;;;;;0.00;0.00;;;;;;;;;;4976077;28;20202;-70
2021/11/09 13:27:01;;;;;;;0.00;0.00;;;;;;;;;;4975853;28;20229;-69
2021/11/09 13:29:30;;;;;;;0.10;0.10;;;;;;;;;;4977578;28;20214;-70
2021/11/09 13:31:57;;;;;;;1.60;0.57;;;;;;;;;;4976781;28;20220;-73
2021/11/09 13:34:26;;;;;;;6.90;1.03;;;;;;;;;;4975293;28;20320;-72
2021/11/09 13:36:56;;;;;;;0.33;0.33;;;;;;;;;;4976356;28;20208;-69
2021/11/09 13:39:24;;;;;;;0.10;0.10;;;;;;;;;;4975481;28;20206;-69
2021/11/09 13:41:51;;;;;;;0.00;0.00;;;;;;;;;;4979179;28;20214;-69
2021/11/09 13:44:18;;;;;;;0.60;0.60;;;;;;;;;;4977349;28;20541;-70
2021/11/09 13:46:47;;;;;;;1.60;1.13;;;;;;;;;;4979004;28;20225;-70
2021/11/09 13:49:15;;;;;;;0.00;0.00;;;;;;;;;;4981930;28;20566;-71
2021/11/09 13:51:48;;;;;;;0.00;0.00;;;;;;;;;;4983458;28;20256;-71
2021/11/09 13:54:18;;;;;;;0.00;0.00;;;;;;;;;;4984244;28;20295;-71
2021/11/09 13:56:47;;;;;;;0.10;0.10;;;;;;;;;;4983947;28;20606;-72
2021/11/09 13:59:16;;;;;;;0.10;0.10;;;;;;;;;;4982015;28;20714;-70
2021/11/09 14:01:51;;;;;;;0.63;0.53;;;;;;;;;;4982203;28;20210;-71
2021/11/09 14:04:35;;;;;;;0.17;0.17;;;;;;;;;;4982733;28;20290;-71
2021/11/09 14:07:29;;;;;;;0.57;0.57;;;;;;;;;;4981172;28;20744;-70
2021/11/09 14:23:34;;;;;;;0.93;0.60;;;;;;;;;;5433200;23;20231;-68
2021/11/09 14:26:17;;;;;;;0.00;0.00;;;;;;;;;;5011668;28;20232;-70
2021/11/09 14:28:44;;;;;;;0.10;0.10;;;;;;;;;;5006932;28;20267;-69
2021/11/09 14:31:16;;;;;;;0.80;0.80;;;;;;;;;;5014043;28;20193;-69
2021/11/09 14:33:46;;;;;;;0.50;0.40;;;;;;;;;;5009312;28;20212;-70
2021/11/09 14:36:28;;;;;;;0.40;0.40;;;;;;;;;;5010185;28;20204;-67
2021/11/09 14:39:11;;;;;;;0.53;0.43;;;;;;;;;;5009393;28;20236;-69
2021/11/09 14:41:58;;;;;;;0.10;0.10;;;;;;;;;;5006549;28;20199;-69
2021/11/09 14:44:26;;;;;;;0.00;0.00;;;;;;;;;;5005579;28;20238;-68
2021/11/09 14:46:57;;;;;;;0.70;0.70;;;;;;;;;;5007525;28;20311;-68
2021/11/09 14:49:37;;;;;;;0.27;0.27;;;;;;;;;;5005379;28;20204;-69
2021/11/09 14:52:08;;;;;;;0.20;0.20;;;;;;;;;;5001571;28;20204;-67
2021/11/09 14:54:45;;;;;;;0.60;0.60;;;;;;;;;;5002413;28;20572;-68
2021/11/09 14:57:13;;;;;;;0.77;0.60;;;;;;;;;;5008852;28;20361;-67
2021/11/09 14:59:41;;;;;;;2.17;1.33;;;;;;;;;;5006217;28;20217;-68
2021/11/09 15:02:15;;;;;;;0.20;0.20;;;;;;;;;;5007211;28;20209;-70
2021/11/09 15:04:50;;;;;;;1.13;0.30;;;;;;;;;;5001568;28;20614;-69
2021/11/09 15:07:22;;;;;;;2.40;0.63;;;;;;;;;;5000528;28;20266;-69
2021/11/09 15:12:54;;;;;;;0.87;0.20;;;;;;;;;;4999754;28;20204;-68
2021/11/09 15:26:30;;;;;;;0.00;0.00;;;;;;;;;;5010831;28;20232;-68
2021/11/09 15:29:00;;;;;;;0.00;0.00;;;;;;;;;;5003500;28;20828;-68
2021/11/09 15:31:32;;;;;;;0.00;0.00;;;;;;;;;;4999839;28;20216;-69
2021/11/09 15:34:21;;;;;;;0.00;0.00;;;;;;;;;;4998714;28;21541;-68
2021/11/09 15:37:00;;;;;;;0.20;0.20;;;;;;;;;;4999469;28;20693;-67
2021/11/09 15:39:28;;;;;;;0.00;0.00;;;;;;;;;;5001018;28;20212;-69
2021/11/09 15:41:58;;;;;;;0.00;0.00;;;;;;;;;;5000520;28;20197;-67
2021/11/09 15:44:27;;;;;;;2.00;0.33;;;;;;;;;;5130628;22;20222;-68
2021/11/09 15:46:56;;;;;;;1.70;1.03;;;;;;;;;;4979032;28;20328;-70
2021/11/09 15:49:23;;;;;;;0.00;0.00;;;;;;;;;;4975597;28;20218;-69
2021/11/09 15:51:51;;;;;;;0.67;0.60;;;;;;;;;;4977526;28;20201;-69
2021/11/09 15:54:18;;;;;;;0.00;0.00;;;;;;;;;;4977508;28;20216;-67
2021/11/09 15:56:45;;;;;;;0.00;0.00;;;;;;;;;;4975225;28;20816;-68
2021/11/09 15:59:14;;;;;;;0.00;0.00;;;;;;;;;;4978172;28;20208;-67
2021/11/09 16:01:44;;;;;;;0.53;0.53;;;;;;;;;;5003377;28;20208;-68
2021/11/09 16:04:13;;;;;;;0.00;0.00;;;;;;;;;;5002971;28;20209;-65
2021/11/09 16:06:46;;;;;;;0.47;0.47;;;;;;;;;;5000176;28;20308;-65
2021/11/09 16:09:15;;;;;;;0.00;0.00;;;;;;;;;;4983316;28;20245;-68
2021/11/09 16:11:45;;;;;;;0.00;0.00;;;;;;;;;;4974239;28;20220;-70
2021/11/09 16:14:12;;;;;;;0.50;0.50;;;;;;;;;;4974033;28;20198;-68
2021/11/09 16:16:41;;;;;;;0.00;0.00;;;;;;;;;;4972624;28;20271;-66
2021/11/09 16:19:09;;;;;;;0.23;0.10;;;;;;;;;;4977835;28;20202;-68
2021/11/09 16:21:37;;;;;;;0.13;0.10;;;;;;;;;;4980462;28;20240;-68
2021/11/09 16:24:05;;;;;;;1.83;0.87;;;;;;;;;;4975310;28;20209;-67
2021/11/09 16:26:32;;;;;;;0.63;0.63;;;;;;;;;;4983142;28;20229;-67
2021/11/09 16:29:01;;;;;;;0.00;0.00;;;;;;;;;;4980687;28;20300;-67
2021/11/09 16:31:28;;;;;;;0.30;0.30;;;;;;;;;;4981267;28;20201;-67
2021/11/09 16:33:58;;;;;;;0.00;0.00;;;;;;;;;;4981498;28;20210;-67
2021/11/09 16:36:26;;;;;;;0.10;0.10;;;;;;;;;;4981175;28;20210;-68
2021/11/09 16:38:55;;;;;;;0.00;0.00;;;;;;;;;;4981738;28;20198;-68
2021/11/09 16:41:25;;;;;;;0.10;0.10;;;;;;;;;;4980033;28;20235;-67
2021/11/09 16:43:56;;;;;;;0.00;0.00;;;;;;;;;;4978643;28;20268;-68
2021/11/09 16:46:36;;;;;;;0.00;0.00;;;;;;;;;;4982269;28;20229;-68
2021/11/09 16:49:15;;;;;;;0.00;0.00;;;;;;;;;;4987975;28;20292;-68
2021/11/09 16:51:44;;;;;;;0.17;0.17;;;;;;;;;;4983448;28;20205;-68
2021/11/09 16:54:22;;;;;;;1.10;1.10;;;;;;;;;;4975176;28;20197;-67
2021/11/09 16:57:04;;;;;;;0.00;0.00;;;;;;;;;;4972386;28;20340;-67
2021/11/09 16:59:59;;;;;;;0.00;0.00;;;;;;;;;;4972630;28;20219;-66
2021/11/09 18:15:12;;;;;;;0.60;0.60;;;;;;;;;;4976185;28;20698;-69